Time;durP1;ratioP1;P1;durP2;ratioP2;P2;SDS_P1;SDS_P2;PMS_P1;PMS_P2;Temp;Humidity;BMP_temperature;BMP_pressure;BME280_temperature;BME280_humidity;BME280_pressure;Samples;Min_cycle;Max_cycle;Signal;HPM_P1;HPM_P2
2024/01/30 00:00:25;;;;;;;1.53;1.43;;;;;;;;;;4972820;28;20606;-75
2024/01/30 00:02:51;;;;;;;0.53;0.53;;;;;;;;;;4984070;28;20615;-75
2024/01/30 00:05:17;;;;;;;0.87;0.87;;;;;;;;;;4967493;28;20865;-75
2024/01/30 00:07:44;;;;;;;0.80;0.80;;;;;;;;;;4984633;28;20245;-75
2024/01/30 00:10:11;;;;;;;0.60;0.60;;;;;;;;;;4986970;28;20229;-75
2024/01/30 00:12:37;;;;;;;1.00;1.00;;;;;;;;;;4971157;28;20233;-75
2024/01/30 00:15:04;;;;;;;1.00;1.00;;;;;;;;;;4986710;28;20526;-75
2024/01/30 00:17:31;;;;;;;1.30;1.20;;;;;;;;;;4986367;28;20230;-75
2024/01/30 00:19:57;;;;;;;1.00;1.00;;;;;;;;;;4984620;28;20235;-75
2024/01/30 00:22:24;;;;;;;4.67;1.00;;;;;;;;;;4980826;28;20674;-75
2024/01/30 00:24:50;;;;;;;1.40;1.30;;;;;;;;;;4985888;28;20576;-75
2024/01/30 00:27:16;;;;;;;0.80;0.80;;;;;;;;;;4985210;28;20300;-75
2024/01/30 00:29:43;;;;;;;0.77;0.77;;;;;;;;;;4987490;28;20229;-74
2024/01/30 00:32:09;;;;;;;0.57;0.57;;;;;;;;;;4981954;28;20229;-75
2024/01/30 00:34:36;;;;;;;0.40;0.40;;;;;;;;;;4983315;28;20217;-74
2024/01/30 00:37:03;;;;;;;0.53;0.53;;;;;;;;;;4968342;28;20741;-75
2024/01/30 00:39:29;;;;;;;2.17;1.30;;;;;;;;;;4970419;28;20376;-75
2024/01/30 00:41:55;;;;;;;1.17;1.07;;;;;;;;;;4970850;28;20263;-75
2024/01/30 00:44:23;;;;;;;0.63;0.63;;;;;;;;;;4986228;28;20218;-75
2024/01/30 00:46:49;;;;;;;0.70;0.70;;;;;;;;;;4970156;28;20609;-75
2024/01/30 00:49:15;;;;;;;0.97;0.80;;;;;;;;;;4977117;28;20233;-75
2024/01/30 00:51:42;;;;;;;2.40;2.20;;;;;;;;;;4973215;28;20602;-75
2024/01/30 00:54:09;;;;;;;1.23;1.23;;;;;;;;;;4986341;28;20233;-75
2024/01/30 00:56:35;;;;;;;1.90;1.27;;;;;;;;;;4977574;28;20235;-75
2024/01/30 00:59:02;;;;;;;0.50;0.50;;;;;;;;;;4986684;28;20236;-75
2024/01/30 01:01:28;;;;;;;1.10;1.00;;;;;;;;;;4978887;28;20228;-75
2024/01/30 01:03:55;;;;;;;0.60;0.60;;;;;;;;;;4986518;28;20261;-74
2024/01/30 01:06:22;;;;;;;0.90;0.90;;;;;;;;;;4970764;28;20599;-75
2024/01/30 01:08:48;;;;;;;0.37;0.37;;;;;;;;;;4986033;28;20275;-75
2024/01/30 01:11:15;;;;;;;0.60;0.60;;;;;;;;;;4977744;28;20229;-75
2024/01/30 01:13:42;;;;;;;0.73;0.73;;;;;;;;;;4984497;28;20333;-75
2024/01/30 01:16:08;;;;;;;0.40;0.40;;;;;;;;;;4984369;28;20226;-75
2024/01/30 01:18:34;;;;;;;1.07;0.90;;;;;;;;;;4986489;28;20229;-75
2024/01/30 01:21:01;;;;;;;1.43;1.27;;;;;;;;;;4978994;28;20225;-75
2024/01/30 01:23:27;;;;;;;0.70;0.60;;;;;;;;;;4986484;28;20225;-75
2024/01/30 01:25:55;;;;;;;0.93;0.93;;;;;;;;;;4986071;28;20639;-74
2024/01/30 01:28:25;;;;;;;0.83;0.83;;;;;;;;;;4986827;28;20307;-75
2024/01/30 01:30:52;;;;;;;1.17;0.63;;;;;;;;;;4983426;28;20252;-75
2024/01/30 01:33:19;;;;;;;0.87;0.87;;;;;;;;;;4986369;28;20695;-75
2024/01/30 01:35:46;;;;;;;0.70;0.70;;;;;;;;;;4971298;28;20782;-75
2024/01/30 01:38:12;;;;;;;1.03;0.93;;;;;;;;;;4968280;28;20238;-74
2024/01/30 01:40:39;;;;;;;1.70;0.90;;;;;;;;;;4986755;28;20598;-74
2024/01/30 01:43:06;;;;;;;1.43;1.33;;;;;;;;;;4984665;28;20283;-75
2024/01/30 01:45:32;;;;;;;0.87;0.87;;;;;;;;;;4987780;28;20317;-75
2024/01/30 01:47:59;;;;;;;0.90;0.90;;;;;;;;;;4969145;28;20738;-73
2024/01/30 01:50:26;;;;;;;0.73;0.73;;;;;;;;;;4986413;28;20229;-75
2024/01/30 01:52:55;;;;;;;0.70;0.70;;;;;;;;;;4985333;28;20225;-75
2024/01/30 01:55:23;;;;;;;0.67;0.67;;;;;;;;;;4985253;28;20872;-75
2024/01/30 01:57:50;;;;;;;1.60;1.10;;;;;;;;;;4985945;28;20221;-74
2024/01/30 02:00:19;;;;;;;1.07;0.97;;;;;;;;;;4988419;28;20232;-75
2024/01/30 02:02:46;;;;;;;1.63;1.53;;;;;;;;;;4985212;28;20225;-75
2024/01/30 02:05:14;;;;;;;0.80;0.80;;;;;;;;;;4985733;28;20226;-75
2024/01/30 02:07:40;;;;;;;1.37;1.27;;;;;;;;;;4986102;28;20224;-74
2024/01/30 02:10:10;;;;;;;1.43;1.03;;;;;;;;;;4976240;28;20256;-74
2024/01/30 02:12:37;;;;;;;0.37;0.37;;;;;;;;;;4984294;28;21108;-75
2024/01/30 02:15:04;;;;;;;0.60;0.60;;;;;;;;;;4965444;28;20704;-73
2024/01/30 02:17:31;;;;;;;1.30;1.20;;;;;;;;;;4987212;28;20232;-75
2024/01/30 02:19:58;;;;;;;0.67;0.67;;;;;;;;;;4983885;28;20718;-74
2024/01/30 02:22:24;;;;;;;1.33;1.30;;;;;;;;;;4984520;28;20332;-75
2024/01/30 02:24:51;;;;;;;5.70;1.00;;;;;;;;;;4986725;28;20245;-74
2024/01/30 02:27:17;;;;;;;0.80;0.80;;;;;;;;;;4987258;28;20229;-72
2024/01/30 02:29:44;;;;;;;0.60;0.60;;;;;;;;;;4987167;28;20236;-74
2024/01/30 02:32:11;;;;;;;1.17;1.07;;;;;;;;;;4984164;28;20256;-74
2024/01/30 02:34:38;;;;;;;1.17;0.80;;;;;;;;;;4985867;28;20253;-75
2024/01/30 02:37:04;;;;;;;0.57;0.57;;;;;;;;;;4969216;28;20237;-74
2024/01/30 02:39:31;;;;;;;0.80;0.80;;;;;;;;;;4985990;28;20265;-74
2024/01/30 02:41:57;;;;;;;1.33;1.23;;;;;;;;;;4973268;28;20226;-75
2024/01/30 02:44:23;;;;;;;1.67;1.57;;;;;;;;;;4984798;28;20228;-75
2024/01/30 02:46:50;;;;;;;0.83;0.83;;;;;;;;;;4967731;28;20251;-74
2024/01/30 02:49:16;;;;;;;1.93;0.70;;;;;;;;;;4986232;28;20225;-75
2024/01/30 02:51:43;;;;;;;1.90;0.60;;;;;;;;;;4987411;28;20699;-74
2024/01/30 02:54:09;;;;;;;0.50;0.50;;;;;;;;;;4982469;28;20237;-73
2024/01/30 02:56:35;;;;;;;0.80;0.80;;;;;;;;;;4977113;28;20244;-74
2024/01/30 02:59:02;;;;;;;0.97;0.97;;;;;;;;;;4979042;28;20230;-74
2024/01/30 03:01:29;;;;;;;0.50;0.50;;;;;;;;;;4986375;28;20762;-74
2024/01/30 03:03:55;;;;;;;0.60;0.60;;;;;;;;;;4968008;28;20245;-74
2024/01/30 03:06:22;;;;;;;0.90;0.87;;;;;;;;;;4978022;28;20228;-74
2024/01/30 03:08:49;;;;;;;0.90;0.90;;;;;;;;;;4968354;28;20262;-75
2024/01/30 03:11:15;;;;;;;0.53;0.53;;;;;;;;;;4983945;28;20229;-75
2024/01/30 03:13:41;;;;;;;0.77;0.67;;;;;;;;;;4984480;28;20233;-74
2024/01/30 03:16:08;;;;;;;0.73;0.73;;;;;;;;;;4987806;28;20225;-74
2024/01/30 03:18:35;;;;;;;1.20;1.20;;;;;;;;;;4989227;28;20243;-74
2024/01/30 03:21:02;;;;;;;0.57;0.57;;;;;;;;;;4987612;28;20253;-75
2024/01/30 03:23:29;;;;;;;0.60;0.60;;;;;;;;;;4968593;28;20232;-74
2024/01/30 03:25:55;;;;;;;1.00;0.80;;;;;;;;;;4986684;28;20225;-74
2024/01/30 03:28:22;;;;;;;1.13;1.13;;;;;;;;;;4984687;28;20225;-75
2024/01/30 03:30:48;;;;;;;0.90;0.90;;;;;;;;;;4985387;28;20225;-75
2024/01/30 03:33:14;;;;;;;1.47;1.37;;;;;;;;;;4987955;28;20295;-73
2024/01/30 03:35:41;;;;;;;0.47;0.47;;;;;;;;;;4970765;28;20236;-74
2024/01/30 03:38:07;;;;;;;0.93;0.93;;;;;;;;;;4988251;28;20233;-74
2024/01/30 03:40:33;;;;;;;0.63;0.63;;;;;;;;;;4987785;28;20225;-75
2024/01/30 03:43:00;;;;;;;0.70;0.70;;;;;;;;;;4971685;28;20221;-74
2024/01/30 03:45:26;;;;;;;1.43;1.00;;;;;;;;;;4971102;28;20252;-74
2024/01/30 03:47:53;;;;;;;0.73;0.73;;;;;;;;;;4968175;28;20228;-75
2024/01/30 03:50:19;;;;;;;0.83;0.60;;;;;;;;;;4987189;28;20229;-75
2024/01/30 03:52:46;;;;;;;1.17;1.13;;;;;;;;;;4987548;28;20230;-74
2024/01/30 03:55:12;;;;;;;0.50;0.50;;;;;;;;;;4985645;28;20233;-74
2024/01/30 03:57:39;;;;;;;1.10;1.00;;;;;;;;;;4971327;28;20226;-74
2024/01/30 04:00:06;;;;;;;0.50;0.50;;;;;;;;;;4986900;28;20607;-74
2024/01/30 04:02:33;;;;;;;0.50;0.50;;;;;;;;;;4988522;28;20229;-74
2024/01/30 04:04:59;;;;;;;0.50;0.50;;;;;;;;;;4969634;28;20225;-74
2024/01/30 04:07:26;;;;;;;0.50;0.50;;;;;;;;;;4969921;28;20272;-75
2024/01/30 04:09:52;;;;;;;0.77;0.77;;;;;;;;;;4986566;28;20311;-75
2024/01/30 04:12:19;;;;;;;0.77;0.77;;;;;;;;;;4970704;28;20229;-74
2024/01/30 04:14:46;;;;;;;0.60;0.60;;;;;;;;;;4985171;28;20226;-72
2024/01/30 04:17:12;;;;;;;0.90;0.90;;;;;;;;;;4982782;28;20253;-74
2024/01/30 04:19:39;;;;;;;0.50;0.50;;;;;;;;;;4985566;28;20580;-74
2024/01/30 04:22:06;;;;;;;2.83;0.67;;;;;;;;;;4985551;28;20336;-74
2024/01/30 04:24:33;;;;;;;1.17;1.17;;;;;;;;;;4986053;28;20225;-75
2024/01/30 04:26:59;;;;;;;0.40;0.40;;;;;;;;;;4985924;28;20251;-73
2024/01/30 04:29:26;;;;;;;0.50;0.50;;;;;;;;;;4984646;28;20233;-74
2024/01/30 04:31:52;;;;;;;0.40;0.40;;;;;;;;;;4984222;28;20225;-74
2024/01/30 04:34:18;;;;;;;0.37;0.37;;;;;;;;;;4987349;28;20232;-74
2024/01/30 04:36:46;;;;;;;0.70;0.70;;;;;;;;;;4984627;28;20315;-75
2024/01/30 04:39:12;;;;;;;0.77;0.70;;;;;;;;;;4984685;28;20233;-73
2024/01/30 04:41:39;;;;;;;0.43;0.43;;;;;;;;;;4983308;28;20301;-75
2024/01/30 04:44:06;;;;;;;0.97;0.97;;;;;;;;;;4986938;28;20312;-74
2024/01/30 04:46:34;;;;;;;0.60;0.60;;;;;;;;;;4986333;28;20222;-73
2024/01/30 04:49:00;;;;;;;0.50;0.50;;;;;;;;;;4986753;28;20231;-75
2024/01/30 04:51:27;;;;;;;1.10;0.73;;;;;;;;;;4985619;28;20229;-74
2024/01/30 04:53:53;;;;;;;0.60;0.60;;;;;;;;;;4985124;28;21107;-74
2024/01/30 04:56:19;;;;;;;0.60;0.60;;;;;;;;;;4983485;28;20725;-75
2024/01/30 04:58:46;;;;;;;0.60;0.60;;;;;;;;;;4987185;28;20331;-75
2024/01/30 05:01:16;;;;;;;0.57;0.57;;;;;;;;;;4986554;28;20717;-74
2024/01/30 05:03:43;;;;;;;0.73;0.73;;;;;;;;;;4986754;28;20225;-75
2024/01/30 05:06:10;;;;;;;0.50;0.50;;;;;;;;;;4968258;28;20226;-74
2024/01/30 05:08:36;;;;;;;0.77;0.77;;;;;;;;;;4977970;28;20229;-74
2024/01/30 05:11:05;;;;;;;0.57;0.57;;;;;;;;;;4983994;28;20241;-74
2024/01/30 05:13:31;;;;;;;0.30;0.30;;;;;;;;;;4984323;28;20229;-75
2024/01/30 05:15:58;;;;;;;0.47;0.47;;;;;;;;;;4977257;28;20228;-74
2024/01/30 05:18:24;;;;;;;0.60;0.60;;;;;;;;;;4986810;28;20690;-73
2024/01/30 05:20:51;;;;;;;1.90;0.70;;;;;;;;;;4984966;28;20224;-75
2024/01/30 05:23:18;;;;;;;0.30;0.30;;;;;;;;;;4986067;28;20244;-74
2024/01/30 05:25:44;;;;;;;0.30;0.30;;;;;;;;;;4980237;28;20233;-75
2024/01/30 05:28:10;;;;;;;0.40;0.40;;;;;;;;;;4984482;28;20240;-75
2024/01/30 05:30:37;;;;;;;0.50;0.50;;;;;;;;;;4986706;28;20271;-73
2024/01/30 05:33:03;;;;;;;0.77;0.77;;;;;;;;;;4984035;28;20229;-74
2024/01/30 05:35:31;;;;;;;0.80;0.80;;;;;;;;;;4989009;28;20295;-74
2024/01/30 05:37:57;;;;;;;0.63;0.63;;;;;;;;;;4973482;28;20620;-73
2024/01/30 05:40:24;;;;;;;0.40;0.40;;;;;;;;;;4987478;28;20772;-74
2024/01/30 05:42:50;;;;;;;0.30;0.30;;;;;;;;;;4985202;28;20769;-74
2024/01/30 05:45:17;;;;;;;0.40;0.40;;;;;;;;;;4988149;28;20229;-75
2024/01/30 05:47:43;;;;;;;0.80;0.77;;;;;;;;;;4989588;28;20312;-74
2024/01/30 05:50:09;;;;;;;1.63;1.50;;;;;;;;;;4985808;28;20229;-75
2024/01/30 05:52:36;;;;;;;0.60;0.60;;;;;;;;;;4988520;28;20241;-75
2024/01/30 05:55:03;;;;;;;0.37;0.37;;;;;;;;;;4974682;28;20733;-74
2024/01/30 05:57:29;;;;;;;0.30;0.30;;;;;;;;;;4972245;28;20679;-74
2024/01/30 05:59:56;;;;;;;0.60;0.60;;;;;;;;;;4989261;28;20236;-74
2024/01/30 06:02:22;;;;;;;1.03;0.60;;;;;;;;;;4986445;28;20234;-75
2024/01/30 06:04:49;;;;;;;1.03;1.03;;;;;;;;;;4987283;28;20213;-74
2024/01/30 06:07:17;;;;;;;0.40;0.40;;;;;;;;;;4984762;28;20226;-74
2024/01/30 06:09:45;;;;;;;15.40;1.23;;;;;;;;;;4986964;28;20688;-74
2024/01/30 06:12:12;;;;;;;0.80;0.80;;;;;;;;;;4988436;28;20232;-74
2024/01/30 06:14:38;;;;;;;0.40;0.40;;;;;;;;;;4980328;28;20253;-74
2024/01/30 06:17:06;;;;;;;0.97;0.97;;;;;;;;;;4988553;28;20257;-74
2024/01/30 06:19:32;;;;;;;0.53;0.53;;;;;;;;;;4986768;28;20236;-74
2024/01/30 06:22:00;;;;;;;0.50;0.50;;;;;;;;;;4988741;28;20225;-74
2024/01/30 06:24:27;;;;;;;1.63;1.53;;;;;;;;;;4979144;28;20239;-75
2024/01/30 06:26:54;;;;;;;1.37;0.87;;;;;;;;;;4984118;28;20221;-74
2024/01/30 06:29:20;;;;;;;2.27;0.90;;;;;;;;;;4987451;28;20225;-75
2024/01/30 06:31:47;;;;;;;5.63;0.83;;;;;;;;;;4989619;28;20225;-74
2024/01/30 06:34:14;;;;;;;1.63;0.80;;;;;;;;;;4988945;28;20581;-75
2024/01/30 06:36:40;;;;;;;0.50;0.50;;;;;;;;;;4986481;28;20726;-74
2024/01/30 06:39:07;;;;;;;1.77;1.00;;;;;;;;;;4971527;28;20240;-74
2024/01/30 06:41:34;;;;;;;0.50;0.50;;;;;;;;;;4970738;28;20234;-74
2024/01/30 06:44:08;;;;;;;0.40;0.40;;;;;;;;;;4986098;28;20788;-75
2024/01/30 06:46:35;;;;;;;0.60;0.60;;;;;;;;;;4986454;28;20277;-74
2024/01/30 06:49:01;;;;;;;0.47;0.47;;;;;;;;;;4988215;28;20226;-74
2024/01/30 06:51:28;;;;;;;0.50;0.50;;;;;;;;;;4970006;28;20233;-74
2024/01/30 06:53:54;;;;;;;0.70;0.70;;;;;;;;;;4980712;28;21090;-74
2024/01/30 06:56:20;;;;;;;0.40;0.40;;;;;;;;;;4963396;28;20236;-74
2024/01/30 06:58:48;;;;;;;1.43;1.27;;;;;;;;;;4985460;28;20230;-72
2024/01/30 07:01:15;;;;;;;0.60;0.60;;;;;;;;;;4986338;28;20337;-75
2024/01/30 07:03:42;;;;;;;1.23;1.13;;;;;;;;;;4985405;28;20232;-73
2024/01/30 07:06:12;;;;;;;0.33;0.33;;;;;;;;;;4985550;28;20230;-74
2024/01/30 07:08:39;;;;;;;0.50;0.50;;;;;;;;;;4981527;28;20248;-74
2024/01/30 07:11:06;;;;;;;0.90;0.87;;;;;;;;;;4982141;28;20221;-74
2024/01/30 07:13:32;;;;;;;0.53;0.53;;;;;;;;;;4989719;28;20599;-74
2024/01/30 07:15:59;;;;;;;0.40;0.40;;;;;;;;;;4986489;28;20236;-74
2024/01/30 07:18:26;;;;;;;2.63;1.13;;;;;;;;;;4970751;28;20225;-74
2024/01/30 07:20:52;;;;;;;0.97;0.90;;;;;;;;;;4963943;28;20245;-74
2024/01/30 07:23:19;;;;;;;0.47;0.47;;;;;;;;;;4971850;28;20595;-74
2024/01/30 07:25:45;;;;;;;0.50;0.50;;;;;;;;;;4986847;28;20228;-75
2024/01/30 07:28:16;;;;;;;5.63;2.37;;;;;;;;;;4970830;28;20229;-74
2024/01/30 07:30:43;;;;;;;0.30;0.30;;;;;;;;;;4985725;28;20307;-74
2024/01/30 07:33:10;;;;;;;0.60;0.60;;;;;;;;;;4987130;28;20237;-74
2024/01/30 07:35:36;;;;;;;0.50;0.50;;;;;;;;;;4987808;28;20229;-74
2024/01/30 07:38:03;;;;;;;1.27;1.17;;;;;;;;;;4972116;28;20253;-74
2024/01/30 07:40:33;;;;;;;0.70;0.63;;;;;;;;;;4988445;28;20232;-74
2024/01/30 07:43:00;;;;;;;0.57;0.57;;;;;;;;;;4985854;28;21396;-74
2024/01/30 07:45:32;;;;;;;0.30;0.30;;;;;;;;;;4986400;28;21081;-74
2024/01/30 07:47:59;;;;;;;0.40;0.40;;;;;;;;;;4980545;28;20237;-71
2024/01/30 07:50:26;;;;;;;0.40;0.40;;;;;;;;;;4971402;28;20229;-74
2024/01/30 07:52:54;;;;;;;0.53;0.53;;;;;;;;;;4988803;28;20280;-74
2024/01/30 07:55:27;;;;;;;0.67;0.67;;;;;;;;;;4986192;28;20233;-74
2024/01/30 07:57:54;;;;;;;0.57;0.57;;;;;;;;;;4987343;28;20295;-74
2024/01/30 08:00:21;;;;;;;0.30;0.30;;;;;;;;;;4969379;28;20285;-74
2024/01/30 08:02:48;;;;;;;0.57;0.40;;;;;;;;;;4976326;28;20753;-75
2024/01/30 08:05:15;;;;;;;1.57;0.90;;;;;;;;;;4969764;28;20248;-74
2024/01/30 08:07:45;;;;;;;0.50;0.50;;;;;;;;;;4986601;28;20240;-74
2024/01/30 08:10:14;;;;;;;0.87;0.87;;;;;;;;;;4987923;28;20256;-72
2024/01/30 08:12:41;;;;;;;0.40;0.40;;;;;;;;;;4982553;28;20646;-73
2024/01/30 08:15:08;;;;;;;0.67;0.67;;;;;;;;;;4982443;28;20261;-71
2024/01/30 08:17:34;;;;;;;0.93;0.93;;;;;;;;;;4964813;28;20232;-73
2024/01/30 08:20:01;;;;;;;0.83;0.83;;;;;;;;;;4985779;28;20603;-74
2024/01/30 08:22:27;;;;;;;2.87;1.90;;;;;;;;;;4977137;28;20700;-77
2024/01/30 08:24:54;;;;;;;0.43;0.43;;;;;;;;;;4960974;28;20276;-76
2024/01/30 08:27:20;;;;;;;0.50;0.50;;;;;;;;;;4967106;28;20225;-76
2024/01/30 08:29:47;;;;;;;1.30;0.90;;;;;;;;;;4981786;28;20265;-76
2024/01/30 08:32:13;;;;;;;0.77;0.77;;;;;;;;;;4980947;28;20225;-76
2024/01/30 08:34:40;;;;;;;0.60;0.60;;;;;;;;;;4964570;28;20715;-76
2024/01/30 08:37:06;;;;;;;0.97;0.87;;;;;;;;;;4965492;28;20225;-77
2024/01/30 08:39:33;;;;;;;0.30;0.30;;;;;;;;;;4964390;28;20229;-76
2024/01/30 08:42:00;;;;;;;0.70;0.70;;;;;;;;;;4968340;28;20226;-77
2024/01/30 08:44:27;;;;;;;1.20;1.10;;;;;;;;;;4973802;28;20225;-76
2024/01/30 08:46:53;;;;;;;0.50;0.50;;;;;;;;;;4984531;28;20603;-79
2024/01/30 08:49:24;;;;;;;0.63;0.63;;;;;;;;;;4979585;28;20260;-78
2024/01/30 08:51:51;;;;;;;2.10;0.97;;;;;;;;;;4985094;28;20225;-78
2024/01/30 08:54:17;;;;;;;1.43;1.37;;;;;;;;;;4987155;28;20249;-78
2024/01/30 08:56:44;;;;;;;0.63;0.63;;;;;;;;;;4983961;28;20706;-80
2024/01/30 08:59:11;;;;;;;0.50;0.50;;;;;;;;;;4982542;28;20249;-73
2024/01/30 09:01:39;;;;;;;1.17;0.87;;;;;;;;;;4984234;28;20348;-73
2024/01/30 09:04:12;;;;;;;1.03;0.93;;;;;;;;;;4984180;28;20226;-73
2024/01/30 09:06:39;;;;;;;0.30;0.30;;;;;;;;;;4984879;28;20221;-73
2024/01/30 09:09:06;;;;;;;0.30;0.30;;;;;;;;;;4985420;28;20237;-74
2024/01/30 09:11:35;;;;;;;1.10;1.10;;;;;;;;;;4989983;28;20718;-73
2024/01/30 09:14:01;;;;;;;0.70;0.70;;;;;;;;;;4989725;28;20356;-73
2024/01/30 09:16:29;;;;;;;0.40;0.40;;;;;;;;;;4991792;28;20241;-73
2024/01/30 09:18:56;;;;;;;0.30;0.30;;;;;;;;;;4974764;28;20228;-73
2024/01/30 09:21:23;;;;;;;3.00;2.40;;;;;;;;;;4990131;28;20624;-73
2024/01/30 09:23:49;;;;;;;0.67;0.67;;;;;;;;;;4975671;28;20225;-73
2024/01/30 09:26:16;;;;;;;0.70;0.70;;;;;;;;;;4989655;28;20225;-73
2024/01/30 09:28:43;;;;;;;0.50;0.50;;;;;;;;;;4989360;28;20610;-73
2024/01/30 09:31:10;;;;;;;0.93;0.93;;;;;;;;;;4988803;28;20245;-73
2024/01/30 09:33:37;;;;;;;0.30;0.30;;;;;;;;;;4988944;28;20229;-73
2024/01/30 09:36:06;;;;;;;0.43;0.43;;;;;;;;;;4974534;28;20229;-73
2024/01/30 09:38:32;;;;;;;3.63;1.13;;;;;;;;;;4975147;28;20719;-73
2024/01/30 09:41:05;;;;;;;0.60;0.60;;;;;;;;;;4988955;28;20230;-73
2024/01/30 09:43:34;;;;;;;0.30;0.30;;;;;;;;;;4989178;28;20237;-73
2024/01/30 09:46:03;;;;;;;0.30;0.30;;;;;;;;;;4989552;28;20226;-73
2024/01/30 09:48:30;;;;;;;0.37;0.37;;;;;;;;;;4974637;28;20714;-73
2024/01/30 09:50:57;;;;;;;1.10;1.00;;;;;;;;;;4987017;28;20221;-73
2024/01/30 09:53:24;;;;;;;0.27;0.27;;;;;;;;;;4989071;28;20612;-73
2024/01/30 09:55:50;;;;;;;0.30;0.30;;;;;;;;;;4972104;28;20321;-73
2024/01/30 09:58:17;;;;;;;0.80;0.80;;;;;;;;;;4972433;28;20240;-73
2024/01/30 10:00:44;;;;;;;0.40;0.40;;;;;;;;;;4989766;28;20303;-73
2024/01/30 10:03:10;;;;;;;0.53;0.53;;;;;;;;;;4989162;28;20233;-73
2024/01/30 10:05:40;;;;;;;0.63;0.57;;;;;;;;;;4987825;28;20773;-74
2024/01/30 10:08:08;;;;;;;0.40;0.40;;;;;;;;;;4984725;28;20243;-74
2024/01/30 10:10:35;;;;;;;1.03;1.03;;;;;;;;;;4990337;28;20296;-73
2024/01/30 10:13:02;;;;;;;0.23;0.23;;;;;;;;;;4989452;28;20713;-74
2024/01/30 10:15:31;;;;;;;0.30;0.30;;;;;;;;;;4974205;28;20226;-74
2024/01/30 10:17:57;;;;;;;0.20;0.20;;;;;;;;;;4989810;28;20229;-74
2024/01/30 10:20:25;;;;;;;0.30;0.30;;;;;;;;;;4989498;28;20283;-73
2024/01/30 10:22:54;;;;;;;0.30;0.30;;;;;;;;;;4987457;28;20229;-74
2024/01/30 10:25:21;;;;;;;0.30;0.30;;;;;;;;;;4973886;28;20221;-74
2024/01/30 10:27:54;;;;;;;0.87;0.87;;;;;;;;;;4987256;28;20233;-74
2024/01/30 10:30:22;;;;;;;0.63;0.63;;;;;;;;;;4985271;28;20282;-74
2024/01/30 10:32:48;;;;;;;0.30;0.30;;;;;;;;;;4974184;28;20247;-74
2024/01/30 10:35:15;;;;;;;0.30;0.30;;;;;;;;;;4989153;28;20264;-74
2024/01/30 10:37:49;;;;;;;0.20;0.20;;;;;;;;;;4987632;28;20906;-74
2024/01/30 10:40:16;;;;;;;2.27;1.50;;;;;;;;;;4989992;28;20790;-74
2024/01/30 10:42:45;;;;;;;0.97;0.97;;;;;;;;;;4988130;28;20304;-74
2024/01/30 10:45:18;;;;;;;0.67;0.67;;;;;;;;;;4988183;28;20237;-74
2024/01/30 10:47:50;;;;;;;0.77;0.77;;;;;;;;;;4971904;28;20264;-74
2024/01/30 10:50:16;;;;;;;0.73;0.73;;;;;;;;;;4984896;28;20230;-74
2024/01/30 10:52:43;;;;;;;0.30;0.30;;;;;;;;;;4972490;28;20217;-74
2024/01/30 10:55:10;;;;;;;0.50;0.50;;;;;;;;;;4984524;28;20315;-74
2024/01/30 10:57:38;;;;;;;0.50;0.50;;;;;;;;;;4970818;28;20232;-74
2024/01/30 11:00:10;;;;;;;0.30;0.30;;;;;;;;;;4985949;28;20225;-74
2024/01/30 11:02:43;;;;;;;1.03;0.87;;;;;;;;;;4986668;28;20218;-74
2024/01/30 11:05:10;;;;;;;0.50;0.50;;;;;;;;;;4965731;28;20241;-74
2024/01/30 11:07:39;;;;;;;0.97;0.87;;;;;;;;;;4989617;28;20222;-74
2024/01/30 11:10:08;;;;;;;0.70;0.70;;;;;;;;;;4987903;28;20233;-74
2024/01/30 11:12:43;;;;;;;0.40;0.40;;;;;;;;;;4987285;28;20230;-74
2024/01/30 11:15:13;;;;;;;0.40;0.40;;;;;;;;;;4971882;28;20240;-74
2024/01/30 11:17:49;;;;;;;0.63;0.63;;;;;;;;;;4990079;28;20233;-74
2024/01/30 11:20:19;;;;;;;0.30;0.30;;;;;;;;;;4987803;28;20236;-74
2024/01/30 11:22:47;;;;;;;0.70;0.70;;;;;;;;;;4984890;28;20325;-74
2024/01/30 11:25:14;;;;;;;0.47;0.47;;;;;;;;;;4988277;28;20255;-74
2024/01/30 11:27:42;;;;;;;0.43;0.43;;;;;;;;;;4990577;28;20232;-73
2024/01/30 11:30:09;;;;;;;0.50;0.50;;;;;;;;;;4973984;28;20237;-75
2024/01/30 11:32:35;;;;;;;0.97;0.97;;;;;;;;;;4971464;28;20227;-74
2024/01/30 11:35:05;;;;;;;0.40;0.40;;;;;;;;;;4989027;28;20230;-75
2024/01/30 11:37:35;;;;;;;0.30;0.30;;;;;;;;;;4971485;28;20256;-75
2024/01/30 11:40:03;;;;;;;0.30;0.30;;;;;;;;;;4987651;28;20228;-74
2024/01/30 11:42:30;;;;;;;0.50;0.50;;;;;;;;;;4973410;28;20229;-74
2024/01/30 11:44:57;;;;;;;0.60;0.60;;;;;;;;;;4972066;28;20271;-74
2024/01/30 11:47:24;;;;;;;0.60;0.60;;;;;;;;;;4984254;28;20603;-74
2024/01/30 11:49:51;;;;;;;0.67;0.53;;;;;;;;;;4988607;28;20688;-74
2024/01/30 11:52:17;;;;;;;0.40;0.40;;;;;;;;;;4988741;28;20245;-74
2024/01/30 11:54:44;;;;;;;0.47;0.47;;;;;;;;;;4974885;28;20225;-74
2024/01/30 11:57:10;;;;;;;0.40;0.40;;;;;;;;;;4977035;28;20244;-74
2024/01/30 11:59:37;;;;;;;1.00;1.00;;;;;;;;;;4987523;28;20320;-74
2024/01/30 12:02:04;;;;;;;0.30;0.30;;;;;;;;;;4988068;28;20221;-75
2024/01/30 12:04:30;;;;;;;0.83;0.83;;;;;;;;;;4985370;28;20265;-76
2024/01/30 12:06:57;;;;;;;0.40;0.40;;;;;;;;;;4986645;28;20217;-74
2024/01/30 12:09:27;;;;;;;0.30;0.30;;;;;;;;;;4988045;28;20618;-75
2024/01/30 12:11:54;;;;;;;1.13;1.13;;;;;;;;;;4972283;28;20224;-75
2024/01/30 12:14:23;;;;;;;0.27;0.27;;;;;;;;;;4988934;28;20726;-74
2024/01/30 12:16:50;;;;;;;0.30;0.30;;;;;;;;;;4985086;28;20233;-75
2024/01/30 12:19:24;;;;;;;0.30;0.30;;;;;;;;;;4987736;28;20320;-75
2024/01/30 12:22:00;;;;;;;0.47;0.47;;;;;;;;;;4986377;28;20320;-75
2024/01/30 12:24:27;;;;;;;0.33;0.33;;;;;;;;;;4987162;28;20260;-74
2024/01/30 12:26:58;;;;;;;0.40;0.40;;;;;;;;;;4985914;28;20312;-75
2024/01/30 12:29:25;;;;;;;0.30;0.30;;;;;;;;;;4985566;28;20236;-77
2024/01/30 12:31:55;;;;;;;0.40;0.40;;;;;;;;;;4985942;28;20926;-75
2024/01/30 12:34:22;;;;;;;0.40;0.40;;;;;;;;;;4985738;28;20229;-75
2024/01/30 12:36:49;;;;;;;0.33;0.33;;;;;;;;;;4986529;28;20233;-76
2024/01/30 12:39:15;;;;;;;0.50;0.50;;;;;;;;;;4986563;28;20320;-75
2024/01/30 12:41:42;;;;;;;0.90;0.70;;;;;;;;;;4986758;28;20222;-75
2024/01/30 12:44:08;;;;;;;0.45;0.45;;;;;;;;;;4983763;28;20240;-76
2024/01/30 12:46:35;;;;;;;0.73;0.73;;;;;;;;;;4984294;28;20229;-75
2024/01/30 12:49:01;;;;;;;2.60;1.85;;;;;;;;;;4981200;28;20793;-81
2024/01/30 12:51:28;;;;;;;0.98;0.98;;;;;;;;;;4979892;28;20233;-79
2024/01/30 12:53:54;;;;;;;0.65;0.65;;;;;;;;;;4979522;28;20351;-80
2024/01/30 12:56:23;;;;;;;0.30;0.30;;;;;;;;;;4981614;28;20234;-83
2024/01/30 12:58:49;;;;;;;1.20;0.95;;;;;;;;;;4980845;28;20230;-79
2024/01/30 13:01:20;;;;;;;0.73;0.57;;;;;;;;;;4981253;28;20237;-79
2024/01/30 13:03:46;;;;;;;0.57;0.57;;;;;;;;;;4965251;28;20272;-80
2024/01/30 13:06:13;;;;;;;1.15;0.75;;;;;;;;;;4972587;28;20305;-80
2024/01/30 13:08:39;;;;;;;0.65;0.65;;;;;;;;;;4983643;28;20245;-81
2024/01/30 13:11:06;;;;;;;0.50;0.50;;;;;;;;;;4968013;28;20265;-81
2024/01/30 13:13:43;;;;;;;1.40;1.10;;;;;;;;;;4981289;28;20346;-78
2024/01/30 13:16:09;;;;;;;0.70;0.70;;;;;;;;;;4965278;28;20237;-75
2024/01/30 13:18:35;;;;;;;0.77;0.77;;;;;;;;;;4976741;28;20222;-78
2024/01/30 13:21:02;;;;;;;0.40;0.40;;;;;;;;;;4967929;28;20237;-77
2024/01/30 13:23:29;;;;;;;1.45;1.35;;;;;;;;;;4979252;28;20228;-79
2024/01/30 13:25:58;;;;;;;0.75;0.75;;;;;;;;;;4967734;28;20226;-75
2024/01/30 13:28:25;;;;;;;0.40;0.40;;;;;;;;;;4980654;28;20229;-78
2024/01/30 13:30:52;;;;;;;0.50;0.50;;;;;;;;;;4969142;28;20321;-80
2024/01/30 13:33:18;;;;;;;0.73;0.73;;;;;;;;;;4983892;28;20230;-81
2024/01/30 13:35:45;;;;;;;0.80;0.80;;;;;;;;;;4981277;28;20261;-78
2024/01/30 13:38:11;;;;;;;0.30;0.30;;;;;;;;;;4984378;28;20238;-80
2024/01/30 13:40:38;;;;;;;0.40;0.40;;;;;;;;;;4971369;28;20260;-79
2024/01/30 13:43:04;;;;;;;0.60;0.60;;;;;;;;;;4980604;28;20293;-78
2024/01/30 13:45:31;;;;;;;0.38;0.38;;;;;;;;;;4986692;28;20229;-78
2024/01/30 13:47:57;;;;;;;0.32;0.32;;;;;;;;;;4975529;28;20248;-80
2024/01/30 13:50:24;;;;;;;0.63;0.63;;;;;;;;;;4964780;28;20226;-82
2024/01/30 13:52:52;;;;;;;2.85;1.70;;;;;;;;;;4983642;28;20936;-78
2024/01/30 13:55:18;;;;;;;0.45;0.45;;;;;;;;;;4964994;28;20226;-80
2024/01/30 13:57:46;;;;;;;1.33;1.23;;;;;;;;;;4987909;28;20272;-78
2024/01/30 14:00:17;;;;;;;2.28;1.27;;;;;;;;;;4984170;28;20896;-80
2024/01/30 14:02:43;;;;;;;0.70;0.70;;;;;;;;;;4986495;28;20308;-78
2024/01/30 14:05:09;;;;;;;10.63;1.42;;;;;;;;;;4981907;28;20248;-75
2024/01/30 14:07:37;;;;;;;0.65;0.65;;;;;;;;;;4988756;28;20718;-78
2024/01/30 14:10:04;;;;;;;0.88;0.80;;;;;;;;;;4985132;28;20237;-78
2024/01/30 14:12:37;;;;;;;2.50;1.65;;;;;;;;;;4974733;28;20710;-75
2024/01/30 14:15:03;;;;;;;0.40;0.40;;;;;;;;;;4981418;28;20221;-78
2024/01/30 14:17:45;;;;;;;0.75;0.68;;;;;;;;;;4987695;28;20230;-79
2024/01/30 14:20:11;;;;;;;0.43;0.43;;;;;;;;;;4969776;28;20226;-80
2024/01/30 14:22:38;;;;;;;0.50;0.50;;;;;;;;;;4968852;28;20221;-76
2024/01/30 14:25:05;;;;;;;0.52;0.52;;;;;;;;;;4986216;28;20229;-76
2024/01/30 14:27:31;;;;;;;0.40;0.40;;;;;;;;;;4967809;28;20858;-81
2024/01/30 14:29:58;;;;;;;1.85;0.70;;;;;;;;;;4973306;28;20236;-81
2024/01/30 14:32:25;;;;;;;0.47;0.47;;;;;;;;;;4977834;28;20225;-76
2024/01/30 14:34:54;;;;;;;0.75;0.75;;;;;;;;;;4984618;28;20846;-75
2024/01/30 14:37:29;;;;;;;0.52;0.52;;;;;;;;;;4996185;28;20316;-87
2024/01/30 14:39:56;;;;;;;0.40;0.40;;;;;;;;;;4985737;28;20282;-77
2024/01/30 14:42:22;;;;;;;0.98;0.98;;;;;;;;;;4983727;28;20310;-77